Hauptseite
METAR-TAF:

METAR-TAF

Flughäfen :

Khartum, Sudan

Flughafen Khartum

Breite: 15-36N, Länge: 032-33E, Höhe: 382 m

Beobachtung

Neuester Wetterbericht von vor 8 Minuten, um 22:00 UTC
Wind 14 kt aus Nord
Temperatur 31°C
Luftfeuchtigkeit 13%
Luftdruck 1009 hPa
Sichtweite 10 km oder mehr
keine Wolken unter 1500 m und keine Kumulonimbus oder Gewitterwolken

METAR: HSSS 242200Z 36014KT CAVOK 31/M01 Q1009 NOSIG

Zeit: 01:08 (22:08 UTC)

Prognose

Neuester Wetterbericht von vor 5 Stunden und 8 Minuten, um 17:00 UTC
Gültige Prognose vom 24 um 18 UTC bis 25 um 24 UTC
Wind 10 kt aus Nord, Böen bis zu 20 kt
Sichtweite 10 km oder mehr
keine Wolken unter 1500 m und keine Kumulonimbus oder Gewitterwolken
Zeitweise
vom 24 um 18 UTC bis 24 um 22 UTC
Sichtweite: 7000 m
Zeitweise
vom 25 um 04 UTC bis 25 um 08 UTC
Sichtweite: 7000 m

TAF: HSSS 241700Z 2418/2524 36010G20KT CAVOK TEMPO 2418/2422 7000 NSC TEMPO 2504/2508 7000 NSC

Wetterbeobachtungen und Prognosen von mehr als 4000 Flughäfen (METAR und TAF Bericht).

Die verfügbaren Stationen werden durch gelbe und rote Markierungen auf der Karte dargestellt.

Führen Sie die Maus auf sie, um den Namen der Station zu sehen.

Darauf klicken, um die Beobachtung von Wetterbeobachtungen und Prognosen zu sehen.

Um die Karte zu ändern : klicken Sie auf den grünen Tasten mit einem schwarzen Kreuz Zum Vergrößern, auf den grünen Button mit einem Gedankenstrich zu verkleinern, oder auf die grünen Pfeile für benachbarte Karten.


METAR-TAF: